メインページ
METAR-TAF:

METAR-TAF

空港 :

トロント, オンタリオ州, カナダ

トロント・ピアソン国際空港

緯度: 43-40N, 経度: 079-38W, 海抜: 173m

現時点の気象観測

当レポートは39分前の10:00(UTC)に作成
北/北西の風 21kt、最大29ktの突風を伴う
気温 2°C
湿度 80%
気圧 996 hPa
視程: 24.1km
高度2000ftの雲はほとんどない
高度3800ftの曇り

METAR: CYYZ 191000Z 33021G29KT 15SM FEW020 OVC038 02/M01 A2941 RMK SF2SC6 SLP965

時間: 05:39 (10:39 UTC)

予報

当レポートは1時間57分前の08:42(UTC)に作成
予報は19日の 09時(UTC)から 20日の 12時(UTC)まで有効
北/北西の風 20kt、最大30ktの突風を伴う
視程: 10km
高度3000ftの千切れ雲あり
19日の 09時(UTC)から 19日の 12時(UTC)まで一時的に
視程: 8.0km
弱いにわか雪
19日の 16時(UTC)から 19日の 18時(UTC)まで徐々に
西/北西の風 15kt、最大25ktの突風を伴う
19日の 2100時(UTC)から
西/北西の風 15kt
視程: 10km
高度3000ftの千切れ雲あり
20日の 0500時(UTC)から
西の風 15kt
視程: 3.2km
高度2500ftの曇り
弱いにわか雪
20日の 0900時(UTC)から
西の風 15kt
視程: 10km
高度4000ftの千切れ雲あり

TAF: CYYZ 190842Z 1909/2012 34020G30KT P6SM BKN030 TEMPO 1909/1912 5SM -SHSN BECMG 1916/1918 30015G25KT FM192100 30015KT P6SM BKN030 FM200500 27015KT 2SM -SHSN OVC025 FM200900 27015KT P6SM BKN040 RMK NXT FCST BY 191200Z

4,000以上の空港の気象観測と天気予報(METAR報とTAF報)

利用可能な観測所は地図上に黄色い丸と赤い丸で示す。

丸の上にカーソルを重ねると観測所名を参照できる。

次にクリックすると気象観測と天気予報を参照できる。

マップの切り替え:黒色「×」印の緑ボタンをクリックして拡大、「-」印の緑ボタンをクリックして縮小、緑色の三角印をクリックして隣りの地図に切り替え


METAR-TAF: